Sibi Weather



Sibi's Current Weather

Temprature 12.86o clear sky

clear sky

Rain: 0 %

Min Temprature12.86o
Max Temprature12.86o
Humidity33
Wind Speed0.26 m/h
Sun Rise07:23:33
Sun Set17:53:48
Current Time: 18-Jan-2021 06:00:11
Lat/Lon: 29.5448, 67.8764




Sibi's Geo Location



Sibi's Weather Forecast

Time Overall Temp Min Temp Max Temp Humidity Wind Speed Rain
18-Jan-2021 (Mon)
08:00:00 clear sky 13.150 13.150 13.180 33 0.09 m/h 0 %
11:00:00 clear sky 19.330 19.330 21.040 21 1.6 m/h 0 %
14:00:00 clear sky 22.410 22.410 23.040 17 1.64 m/h 0 %
17:00:00 clear sky 22.440 22.440 22.520 18 2.01 m/h 0 %
20:00:00 clear sky 17.080 17.080 17.080 26 1.06 m/h 0 %
23:00:00 clear sky 15.200 15.200 15.200 29 0.7 m/h 0 %
19-Jan-2021 (Tue)
02:00:00 scattered clouds 13.880 13.880 13.880 32 0.61 m/h 0 %
05:00:00 few clouds 13.170 13.170 13.170 33 1.44 m/h 0 %
08:00:00 clear sky 12.690 12.690 12.690 35 0.92 m/h 0 %
11:00:00 clear sky 19.280 19.280 19.280 22 1.12 m/h 0 %
14:00:00 clear sky 21.970 21.970 21.970 19 1.93 m/h 0 %
17:00:00 clear sky 22.020 22.020 22.020 20 1.29 m/h 0 %
20:00:00 clear sky 17.090 17.090 17.090 28 0.47 m/h 0 %
23:00:00 clear sky 15.520 15.520 15.520 31 0.22 m/h 0 %
20-Jan-2021 (Wed)
02:00:00 clear sky 14.480 14.480 14.480 32 0.96 m/h 0 %
05:00:00 clear sky 13.460 13.460 13.460 34 0.82 m/h 0 %
08:00:00 clear sky 13.870 13.870 13.870 34 0.72 m/h 0 %
11:00:00 clear sky 21.960 21.960 21.960 20 0.18 m/h 0 %
14:00:00 few clouds 24.720 24.720 24.720 18 1.77 m/h 0 %
17:00:00 clear sky 24.240 24.240 24.240 19 1.35 m/h 0 %
20:00:00 clear sky 18.620 18.620 18.620 27 0.4 m/h 0 %
23:00:00 clear sky 17.000 17.000 17.000 29 0.36 m/h 0 %
21-Jan-2021 (Thu)
02:00:00 clear sky 15.810 15.810 15.810 32 0.87 m/h 0 %
05:00:00 clear sky 14.660 14.660 14.660 34 0.7 m/h 0 %
08:00:00 clear sky 14.820 14.820 14.820 34 0.4 m/h 0 %
11:00:00 clear sky 22.650 22.650 22.650 20 0.33 m/h 0 %
14:00:00 clear sky 24.890 24.890 24.890 18 1.43 m/h 0 %
17:00:00 clear sky 24.510 24.510 24.510 18 1.68 m/h 0 %
20:00:00 clear sky 19.760 19.760 19.760 25 1.51 m/h 0 %
23:00:00 clear sky 18.630 18.630 18.630 27 1.87 m/h 0 %
22-Jan-2021 (Fri)
02:00:00 clear sky 17.400 17.400 17.400 29 1.73 m/h 0 %
05:00:00 clear sky 16.270 16.270 16.270 31 1.49 m/h 0 %
08:00:00 clear sky 17.400 17.400 17.400 29 2.52 m/h 0 %
11:00:00 clear sky 24.640 24.640 24.640 18 8.27 m/h 0 %
14:00:00 clear sky 26.740 26.740 26.740 13 9.3 m/h 0 %
17:00:00 clear sky 22.940 22.940 22.940 15 12.15 m/h 0 %
20:00:00 few clouds 18.530 18.530 18.530 22 8.88 m/h 0 %
23:00:00 broken clouds 16.140 16.140 16.140 26 7.74 m/h 0 %
23-Jan-2021 (Sat)
02:00:00 broken clouds 14.200 14.200 14.200 29 7.25 m/h 0 %
05:00:00 broken clouds 12.370 12.370 12.370 33 6.57 m/h 0 %

Famous Cities (60)